TimeCDT,TemperatureF,Dew PointF,Humidity,Sea Level PressureIn,VisibilityMPH,Wind Direction,Wind SpeedMPH,Gust SpeedMPH,PrecipitationIn,Events,Conditions,WindDirDegrees,DateUTC
12:52 AM,75.9,70.0,82,30.25,10.0,Calm,Calm,-,N/A,,Partly Cloudy,0,2013-07-17 05:52:00
1:52 AM,73.9,69.1,85,30.25,10.0,Calm,Calm,-,N/A,,Clear,0,2013-07-17 06:52:00
2:52 AM,73.0,69.1,87,30.25,10.0,Calm,Calm,-,N/A,,Scattered Clouds,0,2013-07-17 07:52:00
3:52 AM,72.0,69.1,91,30.24,9.0,Calm,Calm,-,N/A,,Clear,0,2013-07-17 08:52:00
4:52 AM,73.0,69.1,87,30.25,10.0,East,3.5,-,N/A,,Clear,80,2013-07-17 09:52:00
5:52 AM,72.0,69.1,91,30.26,8.0,Calm,Calm,-,N/A,,Clear,0,2013-07-17 10:52:00
6:52 AM,72.0,69.1,91,30.27,6.0,NE,3.5,-,N/A,,Clear,50,2013-07-17 11:52:00
7:52 AM,75.9,70.0,82,30.29,10.0,Calm,Calm,-,N/A,,Clear,0,2013-07-17 12:52:00
8:52 AM,81.0,71.1,72,30.30,10.0,SSE,8.1,-,N/A,,Clear,160,2013-07-17 13:52:00
9:52 AM,84.9,70.0,61,30.29,10.0,SSW,4.6,-,N/A,,Clear,200,2013-07-17 14:52:00
10:52 AM,86.0,69.1,57,30.29,10.0,Calm,Calm,-,N/A,,Clear,0,2013-07-17 15:52:00
11:52 AM,89.1,68.0,50,30.28,10.0,Calm,Calm,-,N/A,,Mostly Cloudy,0,2013-07-17 16:52:00
12:52 PM,91.0,66.9,45,30.27,10.0,SSE,4.6,-,N/A,,Partly Cloudy,150,2013-07-17 17:52:00
1:52 PM,93.9,64.9,38,30.25,10.0,SE,10.4,-,N/A,,Mostly Cloudy,140,2013-07-17 18:52:00
2:52 PM,95.0,63.0,34,30.23,10.0,ESE,10.4,-,N/A,,Partly Cloudy,120,2013-07-17 19:52:00
3:52 PM,96.1,61.0,31,30.20,10.0,SSE,6.9,-,N/A,,Scattered Clouds,160,2013-07-17 20:52:00
4:52 PM,95.0,61.0,32,30.19,10.0,ESE,5.8,-,N/A,,Mostly Cloudy,120,2013-07-17 21:52:00
5:52 PM,96.1,62.1,32,30.17,10.0,East,9.2,-,N/A,,Partly Cloudy,100,2013-07-17 22:52:00
6:52 PM,93.0,62.1,36,30.17,10.0,SSE,5.8,-,N/A,,Clear,150,2013-07-17 23:52:00
7:52 PM,91.9,63.0,38,30.16,10.0,South,6.9,-,N/A,,Clear,170,2013-07-18 00:52:00
8:52 PM,86.0,64.0,48,30.16,10.0,SSE,4.6,-,N/A,,Clear,160,2013-07-18 01:52:00
9:52 PM,80.1,64.9,60,30.17,10.0,Calm,Calm,-,N/A,,Clear,0,2013-07-18 02:52:00
10:52 PM,81.0,66.0,60,30.19,10.0,Calm,Calm,-,N/A,,Clear,0,2013-07-18 03:52:00
11:52 PM,75.9,66.0,71,30.19,10.0,Calm,Calm,-,N/A,,Clear,0,2013-07-18 04:52:00